createdAt,value
2018-09-29T00:02:22.228Z,20.20
2018-09-29T00:04:50.935Z,20.20
2018-09-29T00:07:19.630Z,20.20
2018-09-29T00:09:48.281Z,20.00
2018-09-29T00:12:16.936Z,20.00
2018-09-29T00:14:45.586Z,20.00
2018-09-29T00:17:14.219Z,19.90
2018-09-29T00:19:42.851Z,20.00
2018-09-29T00:22:11.489Z,20.00
2018-09-29T00:24:40.139Z,19.90
2018-09-29T00:27:08.880Z,19.80
2018-09-29T00:29:37.568Z,19.70
2018-09-29T00:32:06.209Z,19.70
2018-09-29T00:34:34.856Z,19.60
2018-09-29T00:37:03.539Z,19.50
2018-09-29T00:39:32.386Z,19.50
2018-09-29T00:42:01.067Z,19.50
2018-09-29T00:44:29.704Z,19.50
2018-09-29T00:46:58.379Z,19.50
2018-09-29T00:49:27.008Z,19.50
2018-09-29T00:51:55.610Z,19.50
2018-09-29T00:54:24.270Z,19.60
2018-09-29T00:56:52.923Z,19.60
2018-09-29T00:59:21.620Z,19.70
2018-09-29T01:01:50.255Z,19.70
2018-09-29T01:04:18.863Z,19.80
2018-09-29T01:06:47.496Z,19.80
2018-09-29T01:09:16.160Z,19.70
2018-09-29T01:11:44.797Z,19.60
2018-09-29T01:14:13.460Z,19.50
2018-09-29T01:16:42.121Z,19.50
2018-09-29T01:19:10.748Z,19.50
2018-09-29T01:21:39.386Z,19.50
2018-09-29T01:24:08.037Z,19.60
2018-09-29T01:26:36.721Z,19.60
2018-09-29T01:29:05.386Z,19.60
2018-09-29T01:31:34.061Z,19.60
2018-09-29T01:34:02.684Z,19.60
2018-09-29T01:36:31.344Z,19.60
2018-09-29T01:39:00.040Z,19.60
2018-09-29T01:41:28.685Z,19.60
2018-09-29T01:43:57.301Z,19.70
2018-09-29T01:46:25.931Z,19.70
2018-09-29T01:48:54.553Z,19.90
2018-09-29T01:51:23.313Z,20.00
2018-09-29T01:53:52.012Z,20.00
2018-09-29T01:56:20.644Z,20.10
2018-09-29T01:58:49.313Z,20.10
2018-09-29T02:01:17.971Z,20.10
2018-09-29T02:03:46.582Z,20.00
2018-09-29T02:06:15.217Z,20.00
2018-09-29T02:08:43.856Z,20.00
2018-09-29T02:11:12.467Z,19.90
2018-09-29T02:13:41.106Z,19.90
2018-09-29T02:16:09.784Z,19.80
2018-09-29T02:18:38.449Z,19.90
2018-09-29T02:21:07.320Z,19.80
2018-09-29T02:23:36.072Z,19.80
2018-09-29T02:26:04.724Z,19.70
2018-09-29T02:28:33.400Z,19.70
2018-09-29T02:31:02.025Z,19.70
2018-09-29T02:33:30.640Z,19.70
2018-09-29T02:35:59.328Z,19.60
2018-09-29T02:38:27.997Z,19.60
2018-09-29T02:40:56.654Z,19.60
2018-09-29T02:43:25.317Z,19.50
2018-09-29T02:45:54.007Z,19.50
2018-09-29T02:48:22.645Z,19.50
2018-09-29T02:50:51.285Z,19.40
2018-09-29T02:53:19.897Z,19.40
2018-09-29T02:55:48.587Z,19.40
2018-09-29T02:58:17.195Z,19.40
2018-09-29T03:00:45.831Z,19.30
2018-09-29T03:03:14.492Z,19.20
2018-09-29T03:05:43.128Z,19.20
2018-09-29T03:08:11.749Z,19.10
2018-09-29T03:10:40.411Z,19.00
2018-09-29T03:13:09.070Z,18.90
2018-09-29T03:15:37.712Z,18.80
2018-09-29T03:18:06.377Z,18.80
2018-09-29T03:20:35.131Z,18.70
2018-09-29T03:23:03.838Z,18.60
2018-09-29T03:25:32.500Z,18.60
2018-09-29T03:28:01.160Z,18.50
2018-09-29T03:30:29.816Z,18.50
2018-09-29T03:32:58.456Z,18.30
2018-09-29T03:35:27.107Z,18.20
2018-09-29T03:37:55.783Z,18.10
2018-09-29T03:40:24.421Z,17.90
2018-09-29T03:42:53.057Z,17.80
2018-09-29T03:45:21.702Z,17.70
2018-09-29T03:47:50.342Z,17.80
2018-09-29T03:50:19.008Z,17.80
2018-09-29T03:52:47.625Z,17.70
2018-09-29T03:55:16.256Z,17.60
2018-09-29T03:57:44.875Z,17.60
2018-09-29T04:00:13.536Z,17.50
2018-09-29T04:02:42.186Z,17.50
2018-09-29T04:05:10.848Z,17.40
2018-09-29T04:07:39.495Z,17.50
2018-09-29T04:10:08.176Z,17.40
2018-09-29T04:12:36.814Z,17.20
2018-09-29T04:15:05.785Z,17.30
2018-09-29T04:17:34.495Z,17.20
2018-09-29T04:20:03.256Z,17.20
2018-09-29T04:22:31.895Z,17.20
2018-09-29T04:25:00.530Z,17.10
2018-09-29T04:27:29.154Z,17.10
2018-09-29T04:29:57.845Z,17.10
2018-09-29T04:32:26.480Z,17.10
2018-09-29T04:34:55.120Z,17.10
2018-09-29T04:37:23.815Z,17.10
2018-09-29T04:39:52.449Z,17.10
2018-09-29T04:42:21.150Z,17.00
2018-09-29T04:44:49.796Z,17.00
2018-09-29T04:47:18.450Z,16.90
2018-09-29T04:49:47.081Z,16.90
2018-09-29T04:52:15.729Z,16.70
2018-09-29T04:54:44.357Z,16.60
2018-09-29T04:57:12.982Z,16.50
2018-09-29T04:59:41.640Z,16.50
2018-09-29T05:02:10.264Z,16.40
2018-09-29T05:04:38.900Z,16.40
2018-09-29T05:07:07.576Z,16.50
2018-09-29T05:09:36.225Z,16.40
2018-09-29T05:12:04.874Z,16.30
2018-09-29T05:14:33.532Z,16.30
2018-09-29T05:17:02.169Z,16.20
2018-09-29T05:19:30.845Z,16.20
2018-09-29T05:21:59.484Z,16.10
2018-09-29T05:24:28.124Z,16.00
2018-09-29T05:26:56.811Z,15.90
2018-09-29T05:29:25.456Z,15.90
2018-09-29T05:31:54.084Z,15.90
2018-09-29T05:34:22.752Z,15.80
2018-09-29T05:36:51.409Z,15.80
2018-09-29T05:39:20.044Z,15.80
2018-09-29T05:41:48.676Z,15.80
2018-09-29T05:44:17.364Z,15.70
2018-09-29T05:46:46.031Z,15.70
2018-09-29T05:49:14.690Z,15.70
2018-09-29T05:51:43.333Z,15.60
2018-09-29T05:54:12.003Z,15.60
2018-09-29T05:56:40.714Z,15.50
2018-09-29T05:59:09.400Z,15.50
2018-09-29T06:01:38.123Z,15.90
2018-09-29T06:04:06.960Z,15.40
2018-09-29T06:06:35.592Z,15.40
2018-09-29T06:09:05.737Z,15.40
2018-09-29T06:11:34.365Z,15.40
2018-09-29T06:14:03.068Z,15.30
2018-09-29T06:16:31.757Z,15.40
2018-09-29T06:19:00.444Z,15.40
2018-09-29T06:21:29.124Z,15.40
2018-09-29T06:23:57.795Z,15.50
2018-09-29T06:26:26.435Z,15.50
2018-09-29T06:28:55.121Z,15.50
2018-09-29T06:31:23.765Z,15.60
2018-09-29T06:33:52.385Z,15.60
2018-09-29T06:36:21.087Z,15.70
2018-09-29T06:38:49.726Z,15.90
2018-09-29T06:41:18.374Z,16.20
2018-09-29T06:43:47.004Z,16.40
2018-09-29T06:46:15.659Z,16.60
2018-09-29T06:48:44.312Z,16.90
2018-09-29T06:51:12.951Z,17.00
2018-09-29T06:53:41.555Z,17.30
2018-09-29T06:56:10.206Z,17.50
2018-09-29T06:58:38.885Z,17.70
2018-09-29T07:01:07.601Z,17.90
2018-09-29T07:03:36.233Z,18.10
2018-09-29T07:06:04.912Z,18.30
2018-09-29T07:08:33.569Z,18.50
2018-09-29T07:11:02.192Z,18.70
2018-09-29T07:13:32.146Z,18.90
2018-09-29T07:16:00.764Z,19.10
2018-09-29T07:18:29.368Z,19.30
2018-09-29T07:20:57.968Z,19.30
2018-09-29T07:23:26.645Z,19.50
2018-09-29T07:25:55.300Z,19.60
2018-09-29T07:28:23.912Z,19.70
2018-09-29T07:30:52.564Z,19.90
2018-09-29T07:33:21.206Z,19.90
2018-09-29T07:35:49.809Z,20.10
2018-09-29T07:38:18.400Z,20.30
2018-09-29T07:40:47.143Z,20.40
2018-09-29T07:43:15.748Z,20.80
2018-09-29T07:45:44.372Z,20.80
2018-09-29T07:48:12.968Z,21.00
2018-09-29T07:50:41.605Z,21.40
2018-09-29T07:53:10.204Z,21.70
2018-09-29T07:55:38.901Z,21.90
2018-09-29T07:58:07.496Z,22.10
2018-09-29T08:00:36.146Z,22.20
2018-09-29T08:03:04.748Z,22.40
2018-09-29T08:05:33.376Z,22.40
2018-09-29T08:08:01.978Z,22.50
2018-09-29T08:10:30.571Z,22.70
2018-09-29T08:12:59.208Z,22.80
2018-09-29T08:15:27.800Z,22.90
2018-09-29T08:17:56.424Z,23.00
2018-09-29T08:20:25.024Z,23.00
2018-09-29T08:22:53.616Z,23.10
2018-09-29T08:25:22.215Z,23.20
2018-09-29T08:27:50.851Z,23.30
2018-09-29T08:30:19.452Z,23.40
2018-09-29T08:32:48.093Z,23.40
2018-09-29T08:35:16.739Z,23.50
2018-09-29T08:37:45.391Z,23.70
2018-09-29T08:40:14.036Z,23.70
2018-09-29T08:42:42.644Z,23.80
2018-09-29T08:45:11.256Z,23.90
2018-09-29T08:47:39.844Z,24.00
2018-09-29T08:50:08.472Z,24.10
2018-09-29T08:52:37.140Z,24.30
2018-09-29T08:55:05.832Z,24.40
2018-09-29T08:57:34.423Z,24.60
2018-09-29T09:00:03.032Z,24.70
2018-09-29T09:02:31.629Z,24.80
2018-09-29T09:05:00.228Z,24.80
2018-09-29T09:07:28.856Z,24.80
2018-09-29T09:09:57.453Z,24.80
2018-09-29T09:12:26.049Z,24.80
2018-09-29T09:14:54.660Z,24.80
2018-09-29T09:17:23.264Z,24.80
2018-09-29T09:19:51.868Z,24.80
2018-09-29T09:22:20.459Z,24.80
2018-09-29T09:24:49.128Z,24.80
2018-09-29T09:27:17.712Z,24.80
2018-09-29T09:29:46.377Z,24.90
2018-09-29T09:32:14.972Z,24.90
2018-09-29T09:34:43.556Z,25.00
2018-09-29T09:37:12.188Z,25.10
2018-09-29T09:39:40.792Z,25.10
2018-09-29T09:42:09.384Z,25.10
2018-09-29T09:44:37.988Z,25.10
2018-09-29T09:47:06.651Z,25.20
2018-09-29T09:49:35.263Z,25.20
2018-09-29T09:52:03.952Z,25.30
2018-09-29T09:54:32.564Z,25.40
2018-09-29T09:57:01.193Z,25.60
2018-09-29T09:59:29.901Z,25.80
2018-09-29T10:02:03.914Z,26.00
2018-09-29T10:04:32.552Z,26.20
2018-09-29T10:07:01.317Z,26.30
2018-09-29T10:09:29.944Z,26.50
2018-09-29T10:11:58.572Z,26.70
2018-09-29T10:14:27.214Z,26.80
2018-09-29T10:16:55.820Z,27.00
2018-09-29T10:19:24.415Z,27.10
2018-09-29T10:21:53.014Z,27.20
2018-09-29T10:24:21.644Z,27.40
2018-09-29T10:26:50.509Z,27.50
2018-09-29T10:29:19.164Z,27.60
2018-09-29T10:31:47.792Z,27.90
2018-09-29T10:34:16.408Z,28.00
2018-09-29T10:36:45.060Z,28.20
2018-09-29T10:39:13.732Z,28.20
2018-09-29T10:41:42.545Z,28.30
2018-09-29T10:44:12.008Z,28.40
2018-09-29T10:46:40.652Z,28.60
2018-09-29T10:49:09.252Z,28.70
2018-09-29T10:51:37.872Z,28.90
2018-09-29T10:54:06.534Z,28.80
2018-09-29T10:56:35.189Z,29.00
2018-09-29T10:59:03.890Z,28.80
2018-09-29T11:01:32.593Z,28.90
2018-09-29T11:04:01.288Z,29.00
2018-09-29T11:06:29.937Z,29.00
2018-09-29T11:08:58.609Z,28.90
2018-09-29T11:11:27.268Z,29.00
2018-09-29T11:13:55.968Z,29.00
2018-09-29T11:16:24.609Z,29.10
2018-09-29T11:18:53.297Z,29.10
2018-09-29T11:21:21.940Z,29.20
2018-09-29T11:23:50.572Z,29.20
2018-09-29T11:26:19.201Z,29.30
2018-09-29T11:28:47.851Z,29.40
2018-09-29T11:31:16.495Z,29.40
2018-09-29T11:33:45.144Z,29.20
2018-09-29T11:36:13.769Z,29.20
2018-09-29T11:38:42.447Z,29.00
2018-09-29T11:41:11.130Z,29.00
2018-09-29T11:43:39.776Z,29.00
2018-09-29T11:46:08.423Z,28.90
2018-09-29T11:48:37.053Z,29.00
2018-09-29T11:51:10.440Z,28.90
2018-09-29T11:53:39.740Z,28.90
2018-09-29T11:56:08.427Z,28.80
2018-09-29T11:58:37.094Z,28.80
2018-09-29T12:01:05.880Z,28.90
2018-09-29T12:03:34.529Z,28.90
2018-09-29T12:06:03.301Z,29.00
2018-09-29T12:08:32.136Z,28.90
2018-09-29T12:11:08.211Z,29.00
2018-09-29T12:13:37.836Z,29.00
2018-09-29T12:16:12.725Z,28.90
2018-09-29T12:18:45.821Z,28.90
2018-09-29T12:21:14.581Z,29.00
2018-09-29T12:23:43.259Z,29.00
2018-09-29T12:26:12.336Z,29.00
2018-09-29T12:28:40.963Z,29.10
2018-09-29T12:31:09.644Z,29.10
2018-09-29T12:33:38.381Z,29.10
2018-09-29T12:36:07.161Z,29.20
2018-09-29T12:38:35.887Z,29.20
2018-09-29T12:41:04.620Z,29.20
2018-09-29T12:43:33.274Z,29.30
2018-09-29T12:46:01.964Z,29.30
2018-09-29T12:48:33.903Z,29.20
2018-09-29T12:51:02.633Z,29.30
2018-09-29T12:53:31.308Z,29.20
2018-09-29T12:56:00.061Z,29.30
2018-09-29T12:58:28.804Z,29.40
2018-09-29T13:00:57.447Z,29.20
2018-09-29T13:03:26.130Z,29.20
2018-09-29T13:05:54.872Z,29.20
2018-09-29T13:08:23.684Z,29.10
2018-09-29T13:10:52.391Z,29.10
2018-09-29T13:13:21.126Z,29.00
2018-09-29T13:15:49.770Z,29.10
2018-09-29T13:18:18.487Z,29.10
2018-09-29T13:20:47.171Z,29.30
2018-09-29T13:23:15.828Z,29.30
2018-09-29T13:25:44.513Z,29.40
2018-09-29T13:28:13.172Z,29.30
2018-09-29T13:30:41.873Z,29.40
2018-09-29T13:33:10.542Z,29.30
2018-09-29T13:35:40.112Z,29.20
2018-09-29T13:38:10.209Z,29.10
2018-09-29T13:40:40.082Z,29.10
2018-09-29T13:43:10.478Z,29.10
2018-09-29T13:45:39.113Z,29.10
2018-09-29T13:48:08.009Z,29.10
2018-09-29T13:50:36.681Z,29.00
2018-09-29T13:53:05.714Z,29.00
2018-09-29T13:55:34.332Z,28.90
2018-09-29T13:58:02.936Z,28.80
2018-09-29T14:00:31.555Z,28.80
2018-09-29T14:03:00.244Z,28.70
2018-09-29T14:05:28.837Z,28.60
2018-09-29T14:07:57.449Z,28.60
2018-09-29T14:10:26.084Z,28.50
2018-09-29T14:12:54.709Z,28.50
2018-09-29T14:15:23.316Z,28.50
2018-09-29T14:17:51.921Z,28.40
2018-09-29T14:20:20.583Z,28.30
2018-09-29T14:22:49.193Z,28.30
2018-09-29T14:25:17.828Z,28.20
2018-09-29T14:27:46.448Z,28.10
2018-09-29T14:30:15.128Z,28.10
2018-09-29T14:32:43.744Z,28.10
2018-09-29T14:35:12.336Z,28.00
2018-09-29T14:37:40.971Z,27.90
2018-09-29T14:40:09.593Z,27.90
2018-09-29T14:42:38.217Z,27.90
2018-09-29T14:45:06.915Z,27.80
2018-09-29T14:47:35.533Z,27.80
2018-09-29T14:50:05.170Z,27.80
2018-09-29T14:52:33.816Z,27.80
2018-09-29T14:55:02.600Z,27.80
2018-09-29T14:57:31.292Z,27.70
2018-09-29T14:59:59.917Z,27.70
2018-09-29T15:02:28.665Z,27.80
2018-09-29T15:04:57.284Z,27.70
2018-09-29T15:07:25.952Z,27.60
2018-09-29T15:09:54.578Z,27.60
2018-09-29T15:12:23.485Z,27.60
2018-09-29T15:14:52.162Z,27.60
2018-09-29T15:17:20.808Z,27.40
2018-09-29T15:19:49.451Z,27.40
2018-09-29T15:22:18.106Z,27.30
2018-09-29T15:24:46.786Z,27.30
2018-09-29T15:27:15.431Z,27.10
2018-09-29T15:29:44.077Z,27.10
2018-09-29T15:32:12.707Z,27.10
2018-09-29T15:34:41.334Z,27.10
2018-09-29T15:37:11.112Z,27.10
2018-09-29T15:39:39.770Z,27.10
2018-09-29T15:42:08.444Z,27.10
2018-09-29T15:44:37.088Z,27.00
2018-09-29T15:47:05.903Z,27.00
2018-09-29T15:49:34.529Z,26.90
2018-09-29T15:52:03.161Z,26.80
2018-09-29T15:54:31.957Z,26.80
2018-09-29T15:57:00.715Z,26.80
2018-09-29T15:59:29.407Z,26.80
2018-09-29T16:01:58.160Z,26.80
2018-09-29T16:04:26.833Z,26.70
2018-09-29T16:06:55.477Z,26.70
2018-09-29T16:09:24.129Z,26.60
2018-09-29T16:11:52.790Z,26.50
2018-09-29T16:14:21.453Z,26.40
2018-09-29T16:16:50.105Z,26.20
2018-09-29T16:19:18.740Z,26.10
2018-09-29T16:21:47.417Z,26.00
2018-09-29T16:24:16.142Z,26.10
2018-09-29T16:26:44.814Z,26.00
2018-09-29T16:29:13.465Z,25.80
2018-09-29T16:31:42.169Z,25.80
2018-09-29T16:34:10.840Z,25.70
2018-09-29T16:36:39.475Z,25.70
2018-09-29T16:39:11.172Z,25.50
2018-09-29T16:41:39.818Z,25.50
2018-09-29T16:44:08.452Z,25.40
2018-09-29T16:46:37.128Z,25.40
2018-09-29T16:49:05.801Z,25.30
2018-09-29T16:51:34.548Z,25.30
2018-09-29T16:54:03.252Z,25.20
2018-09-29T16:56:31.889Z,25.10
2018-09-29T16:59:00.518Z,25.10
2018-09-29T17:01:29.152Z,25.00
2018-09-29T17:03:57.906Z,25.00
2018-09-29T17:06:26.525Z,24.90
2018-09-29T17:08:55.194Z,24.80
2018-09-29T17:11:23.839Z,24.70
2018-09-29T17:13:52.534Z,24.60
2018-09-29T17:16:21.186Z,24.60
2018-09-29T17:18:49.805Z,24.60
2018-09-29T17:21:18.467Z,24.60
2018-09-29T17:23:47.168Z,24.50
2018-09-29T17:26:15.838Z,24.50
2018-09-29T17:28:44.488Z,24.40
2018-09-29T17:31:13.150Z,24.30
2018-09-29T17:33:41.913Z,24.20
2018-09-29T17:36:10.570Z,24.10
2018-09-29T17:38:39.235Z,24.10
2018-09-29T17:41:07.913Z,24.00
2018-09-29T17:43:36.572Z,24.00
2018-09-29T17:46:05.204Z,23.90
2018-09-29T17:48:33.827Z,23.80
2018-09-29T17:51:02.467Z,23.80
2018-09-29T17:53:31.189Z,23.70
2018-09-29T17:55:59.950Z,23.60
2018-09-29T17:58:28.591Z,23.50
2018-09-29T18:00:57.241Z,23.30
2018-09-29T18:03:25.874Z,23.20
2018-09-29T18:05:54.540Z,23.10
2018-09-29T18:08:23.282Z,23.00
2018-09-29T18:10:52.044Z,22.90
2018-09-29T18:13:20.703Z,22.80
2018-09-29T18:15:49.495Z,22.50
2018-09-29T18:18:18.161Z,22.40
2018-09-29T18:20:46.804Z,22.30
2018-09-29T18:23:15.452Z,22.20
2018-09-29T18:25:44.145Z,22.10
2018-09-29T18:28:13.173Z,22.00
2018-09-29T18:30:41.747Z,21.80
2018-09-29T18:33:10.417Z,21.70
2018-09-29T18:35:39.052Z,21.50
2018-09-29T18:38:07.885Z,21.30
2018-09-29T18:40:36.616Z,21.20
2018-09-29T18:43:05.262Z,21.10
2018-09-29T18:45:33.937Z,21.00
2018-09-29T18:48:02.587Z,20.80
2018-09-29T18:50:31.227Z,20.70
2018-09-29T18:52:59.893Z,20.60
2018-09-29T18:55:28.565Z,20.50
2018-09-29T18:57:57.259Z,20.40
2018-09-29T19:00:25.917Z,20.20
2018-09-29T19:02:54.605Z,20.20
2018-09-29T19:05:23.264Z,20.20
2018-09-29T19:07:51.908Z,20.10
2018-09-29T19:10:20.549Z,20.00
2018-09-29T19:12:49.278Z,19.90
2018-09-29T19:15:18.132Z,19.80
2018-09-29T19:17:46.901Z,19.70
2018-09-29T19:20:15.553Z,19.70
2018-09-29T19:22:44.177Z,19.60
2018-09-29T19:25:12.896Z,19.50
2018-09-29T19:27:41.564Z,19.40
2018-09-29T19:30:10.209Z,19.30
2018-09-29T19:32:38.853Z,19.20
2018-09-29T19:35:07.561Z,19.10
2018-09-29T19:37:36.218Z,19.00
2018-09-29T19:40:05.457Z,19.00
2018-09-29T19:42:34.120Z,18.90
2018-09-29T19:45:02.773Z,18.90
2018-09-29T19:47:31.436Z,18.80
2018-09-29T19:50:00.090Z,18.70
2018-09-29T19:52:28.728Z,18.60
2018-09-29T19:54:57.409Z,18.60
2018-09-29T19:57:26.048Z,18.50
2018-09-29T19:59:54.777Z,18.50
2018-09-29T20:02:23.442Z,18.40
2018-09-29T20:04:52.073Z,18.30
2018-09-29T20:07:20.765Z,18.10
2018-09-29T20:09:49.428Z,18.20
2018-09-29T20:12:18.052Z,18.20
2018-09-29T20:14:46.704Z,18.30
2018-09-29T20:17:15.355Z,18.20
2018-09-29T20:19:44.010Z,18.30
2018-09-29T20:22:12.653Z,18.20
2018-09-29T20:24:41.340Z,18.20
2018-09-29T20:27:10.015Z,18.10
2018-09-29T20:29:38.868Z,18.20
2018-09-29T20:32:07.590Z,18.10
2018-09-29T20:34:59.095Z,18.20
2018-09-29T20:37:42.366Z,18.10
2018-09-29T20:40:27.159Z,18.10
2018-09-29T20:43:00.979Z,18.10
2018-09-29T20:45:33.844Z,18.10
2018-09-29T20:48:02.704Z,18.10
2018-09-29T20:50:31.424Z,18.00
2018-09-29T20:55:49.150Z,18.00
2018-09-29T20:58:18.474Z,18.00
2018-09-29T21:00:48.856Z,18.00
2018-09-29T21:03:17.611Z,17.90
2018-09-29T21:06:01.010Z,17.80
2018-09-29T21:09:05.312Z,17.80
2018-09-29T21:11:36.929Z,17.80
2018-09-29T21:14:18.767Z,17.70
2018-09-29T21:16:48.885Z,17.80
2018-09-29T21:19:26.884Z,17.80
2018-09-29T21:21:59.493Z,17.70
2018-09-29T21:24:29.448Z,17.70
2018-09-29T21:27:06.541Z,17.70
2018-09-29T21:30:01.674Z,17.60
2018-09-29T21:32:43.253Z,17.60
2018-09-29T21:38:07.544Z,17.70
2018-09-29T21:40:36.732Z,17.80
2018-09-29T21:43:05.467Z,17.70
2018-09-29T21:45:37.896Z,17.80
2018-09-29T21:53:23.024Z,17.80
2018-09-29T21:55:53.728Z,17.80
2018-09-29T21:58:23.396Z,17.70
2018-09-29T22:00:54.263Z,17.60
2018-09-29T22:03:25.372Z,17.60
2018-09-29T22:06:07.963Z,17.50
2018-09-29T22:08:39.723Z,17.50
2018-09-29T22:11:10.657Z,17.50
2018-09-29T22:13:49.150Z,17.50
2018-09-29T22:16:20.244Z,17.50
2018-09-29T22:18:52.066Z,17.60
2018-09-29T22:24:17.459Z,17.50
2018-09-29T22:26:55.940Z,17.40
2018-09-29T22:29:33.906Z,17.40
2018-09-29T22:32:14.543Z,17.40
2018-09-29T22:34:43.257Z,17.30
2018-09-29T22:37:11.908Z,17.30
2018-09-29T22:39:40.560Z,17.30
2018-09-29T22:42:09.573Z,17.30
2018-09-29T22:44:38.207Z,17.30
2018-09-29T22:47:06.856Z,17.30
2018-09-29T22:49:35.501Z,17.40
2018-09-29T22:52:04.141Z,17.30
2018-09-29T22:54:32.834Z,17.30
2018-09-29T22:57:01.516Z,17.30
2018-09-29T22:59:30.139Z,17.30
2018-09-29T23:01:58.776Z,17.30
2018-09-29T23:04:27.426Z,17.20
2018-09-29T23:06:56.105Z,17.20
2018-09-29T23:09:24.724Z,17.20
2018-09-29T23:11:53.411Z,17.10
2018-09-29T23:14:22.111Z,17.10
2018-09-29T23:16:50.802Z,17.00
2018-09-29T23:19:19.483Z,17.00
2018-09-29T23:21:48.156Z,16.90
2018-09-29T23:24:16.768Z,16.90
2018-09-29T23:26:45.421Z,16.80
2018-09-29T23:29:14.076Z,16.70
2018-09-29T23:31:42.764Z,16.70
2018-09-29T23:34:11.424Z,16.70
2018-09-29T23:36:40.099Z,16.70
2018-09-29T23:39:09.932Z,16.70
2018-09-29T23:41:38.592Z,16.70
2018-09-29T23:44:07.276Z,16.60
2018-09-29T23:46:35.957Z,16.60
2018-09-29T23:49:04.612Z,16.50
2018-09-29T23:51:33.244Z,16.50
2018-09-29T23:54:01.908Z,16.50
2018-09-29T23:56:30.584Z,16.40
2018-09-29T23:58:59.244Z,16.30
